• Join FlightAware (Why Join?)
  • Login
  • US Flag 
01:13AM EDT


 

Airport Tracker/Info


-or-


 

Live Flight TrackerFlight Track Log ✈ EVA190 ✈ 18-Nov-2013 ✈ RCSS / TSA - RJTT / HND

Flight Track Log - Related Links

Times and Time Zones

All times are in EST time to prevent confusion due to time zone crossing. See the EVA190 flight status page for this flight to view local times or setup timezone preferences in your user account.

Time Position Orientation Groundspeed Altitude Reporting Facility
EST Latitude Longitude Course Direction KTS MPH feet Rate Location/Type
03:30AM 25.4235 122.0535 52° Northeast  Level Estimated
03:31AM 25.5117 122.1795 52° Northeast  Level Estimated
03:32AM 25.5998 122.3056 52° Northeast  Level Estimated
03:33AM 25.6879 122.4319 52° Northeast  Level Estimated
03:34AM 25.7758 122.5584 52° Northeast  Level Estimated
03:35AM 25.8636 122.6850 52° Northeast  Level Estimated
03:36AM 25.9513 122.8119 52° Northeast  Level Estimated
03:37AM 26.0388 122.9389 52° Northeast  Level Estimated
03:38AM 26.1263 123.0662 53° Northeast  Level Estimated
03:39AM 26.2137 123.1936 53° Northeast  Level Estimated
03:40AM 26.3009 123.3212 53° Northeast  Level Estimated
03:41AM 26.3880 123.4490 53° Northeast  Level Estimated
03:42AM 26.4751 123.5770 53° Northeast  Level Estimated
03:43AM 26.5620 123.7053 53° Northeast  Level Estimated
03:44AM 26.6488 123.8336 53° Northeast  Level Estimated
03:45AM 26.7354 123.9622 53° Northeast  Level Estimated
03:46AM 26.8220 124.0910 53° Northeast  Level Estimated
03:47AM 26.9084 124.2200 53° Northeast  Level Estimated
03:48AM 26.9948 124.3492 53° Northeast  Level Estimated
03:49AM 27.0810 124.4786 53° Northeast  Level Estimated
03:50AM 27.1671 124.6081 53° Northeast  Level Estimated
03:51AM 27.2530 124.7379 53° Northeast  Level Estimated
03:52AM 27.3389 124.8679 53° Northeast  Level Estimated
03:53AM 27.4246 124.9981 53° Northeast  Level Estimated
03:54AM 27.5102 125.1284 53° Northeast  Level Estimated
03:55AM 27.5957 125.2590 54° Northeast  Level Estimated
03:56AM 27.6811 125.3898 54° Northeast  Level Estimated
03:57AM 27.7663 125.5208 54° Northeast  Level Estimated
03:58AM 27.8514 125.6520 54° Northeast  Level Estimated
03:59AM 27.9364 125.7834 54° Northeast  Level Estimated
04:00AM 28.0213 125.9150 54° Northeast  Level Estimated
04:01AM 28.1060 126.0468 54° Northeast  Level Estimated
04:02AM 28.1907 126.1789 54° Northeast  Level Estimated
04:03AM 28.2752 126.3111 54° Northeast  Level Estimated
04:04AM 28.3595 126.4435 54° Northeast  Level Estimated
04:05AM 28.4437 126.5762 54° Northeast  Level Estimated
04:06AM 28.5278 126.7091 54° Northeast  Level Estimated
04:07AM 28.6118 126.8421 54° Northeast  Level Estimated
04:08AM 28.6957 126.9754 54° Northeast  Level Estimated
04:09AM 28.7794 127.1089 54° Northeast  Level Estimated
04:10AM 28.8630 127.2427 54° Northeast  Level Estimated
04:11AM 28.9464 127.3766 55° Northeast  Level Estimated
04:12AM 29.0298 127.5107 55° Northeast  Level Estimated
04:13AM 29.1129 127.6451 55° Northeast  Level Estimated
04:14AM 29.1960 127.7797 55° Northeast  Level Estimated
04:15AM 29.2789 127.9145 55° Northeast  Level Estimated
04:16AM 29.3617 128.0495 55° Northeast  Level Estimated
04:17AM 29.4443 128.1847 55° Northeast  Level Estimated
04:18AM 29.5268 128.3202 55° Northeast  Level Estimated
04:19AM 29.6092 128.4559 55° Northeast  Level Estimated
04:20AM 29.6914 128.5918 55° Northeast  Level Estimated
04:21AM 29.7735 128.7279 55° Northeast  Level Estimated
04:22AM 29.8555 128.8642 55° Northeast  Level Estimated
04:23AM 29.9373 129.0008 55° Northeast  Level Estimated
04:24AM 30.0190 129.1376 55° Northeast  Level Estimated
04:25AM 30.1005 129.2746 55° Northeast  Level Estimated
04:26AM 30.1819 129.4119 56° Northeast  Level Estimated
04:27AM 30.2631 129.5494 56° Northeast  Level Estimated
04:28AM 30.3442 129.6871 56° Northeast  Level Estimated
04:29AM 30.4252 129.8250 56° Northeast  Level Estimated
04:30AM 30.5060 129.9632 56° Northeast  Level Estimated
04:31AM 30.5867 130.1015 56° Northeast  Level Estimated
04:32AM 30.6672 130.2402 56° Northeast  Level Estimated
04:33AM 30.7475 130.3790 56° Northeast  Level Estimated
04:34AM 30.8278 130.5181 56° Northeast  Level Estimated
04:35AM 30.9078 130.6574 56° Northeast  Level Estimated
04:36AM 30.9878 130.7970 56° Northeast  Level Estimated
04:37AM 31.0675 130.9367 56° Northeast  Level Estimated
04:38AM 31.1472 131.0768 56° Northeast  Level Estimated
04:39AM 31.2266 131.2170 56° Northeast  Level Estimated
04:40AM 31.3059 131.3575 57° Northeast  Level Estimated
04:41AM 31.3851 131.4982 57° Northeast  Level Estimated
04:42AM 31.4641 131.6392 57° Northeast  Level Estimated
04:43AM 31.5430 131.7804 57° Northeast  Level Estimated
04:44AM 31.6217 131.9218 57° Northeast  Level Estimated
04:45AM 31.7002 132.0635 57° Northeast  Level Estimated
04:46AM 31.7786 132.2054 57° Northeast  Level Estimated
04:47AM 31.8568 132.3476 57° Northeast  Level Estimated
04:48AM 31.9349 132.4900 57° Northeast  Level Estimated
04:49AM 32.0128 132.6326 57° Northeast  Level Estimated
04:50AM 32.0906 132.7755 57° Northeast  Level Estimated
04:51AM 32.1682 132.9186 57° Northeast  Level Estimated
04:52AM 32.2456 133.0620 57° Northeast  Level Estimated
04:53AM 32.3229 133.2056 57° Northeast  Level Estimated
04:54AM 32.4000 133.3495 58° Northeast  Level Estimated
04:55AM 32.4769 133.4935 58° Northeast  Level Estimated
04:56AM 32.5537 133.6379 58° Northeast  Level Estimated
04:57AM 32.6303 133.7825 58° Northeast  Level Estimated
04:58AM 32.7068 133.9273 58° Northeast  Level Estimated
04:59AM 32.7830 134.0724 58° Northeast  Level Estimated
05:00AM 32.8591 134.2178 58° Northeast  Level Estimated
05:01AM 32.9351 134.3634 58° Northeast  Level Estimated
05:02AM 33.0109 134.5092 58° Northeast  Level Estimated
05:03AM 33.0865 134.6553 58° Northeast  Level Estimated
05:04AM 33.1619 134.8016 58° Northeast  Level Estimated
05:05AM 33.2372 134.9482 58° Northeast  Level Estimated
05:06AM 33.3123 135.0951 59° Northeast  Level Estimated
05:07AM 33.3872 135.2422 59° Northeast  Level Estimated
05:08AM 33.4619 135.3895 59° Northeast  Level Estimated
05:09AM 33.5365 135.5371 59° Northeast  Level Estimated
05:10AM 33.6109 135.6850 59° Northeast  Level Estimated
05:11AM 33.6851 135.8331 59° Northeast  Level Estimated
05:12AM 33.7592 135.9815 59° Northeast  Level Estimated
05:13AM 33.8330 136.1301 59° Northeast  Level Estimated
05:14AM 33.9067 136.2790 59° Northeast  Level Estimated
05:15AM 33.9802 136.4281 59° Northeast  Level Estimated
05:16AM 34.0536 136.5775 59° Northeast  Level Estimated
05:17AM 34.1267 136.7272 59° Northeast  Level Estimated
05:18AM 34.1997 136.8771 59° Northeast  Level Estimated
05:19AM 34.2724 137.0273 60° Northeast  Level Estimated
05:20AM 34.3451 137.1777 60° Northeast  Level Estimated
05:21AM 34.4175 137.3284 60° Northeast  Level Estimated
05:22AM 34.4897 137.4794 60° Northeast  Level Estimated
05:23AM 34.5617 137.6306 60° Northeast  Level Estimated
05:24AM 34.6336 137.7821 60° Northeast  Level Estimated
05:25AM 34.7053 137.9338 60° Northeast  Level Estimated
05:26AM 34.7767 138.0858 60° Northeast  Level Estimated
05:27AM 34.8480 138.2381 60° Northeast  Level Estimated
05:28AM 34.9191 138.3906 60° Northeast  Level Estimated
05:29AM 34.9900 138.5434 60° Northeast  Level Estimated
05:30AM 35.0608 138.6965 61° Northeast  Level Estimated
05:31AM 35.1313 138.8498 61° Northeast  Level Estimated
05:32AM 35.2016 139.0034 61° Northeast  Level Estimated
05:33AM 35.2718 139.1573 61° Northeast  Level Estimated
05:34AM 35.3417 139.3114 61° Northeast  Level Estimated
05:35AM 35.4114 139.4658 61° Northeast  Level Estimated
05:36AM 35.4810 139.6205 61° Northeast  Level Estimated
05:37AM 35.5503 139.7754 61° Northeast  Level Estimated
05:38AM 35.5523 139.7797 61° Northeast  Level Estimated
05:39AM 35.5523 139.7797 122° Southeast  Level Estimated
05:40AM 35.5523 139.7797 122° Southeast  Level Estimated
05:41AM 35.5523 139.7797 122° Southeast  Level Estimated
05:42AM 35.5523 139.7797 122° Southeast  Level Estimated
05:43AM 35.5523 139.7797 122° Southeast  Level Estimated
05:44AM 35.5523 139.7797 122° Southeast  Level Estimated
05:45AM 35.5523 139.7797 122° Southeast  Level Estimated
05:46AM 35.5523 139.7797 122° Southeast  Level Estimated
05:47AM 35.5523 139.7797 122° Southeast  Level Estimated
05:48AM 35.5523 139.7797 122° Southeast  Level Estimated
05:49AM 35.5523 139.7797 122° Southeast  Level Estimated
05:50AM 35.5523 139.7797 122° Southeast  Level Estimated
05:51AM 35.5523 139.7797 122° Southeast  Level Estimated
05:52AM 35.5523 139.7797 122° Southeast  Level Estimated
05:53AM 35.5523 139.7797 122° Southeast  Level Estimated